Time;durP1;ratioP1;P1;durP2;ratioP2;P2;SDS_P1;SDS_P2;PMS_P1;PMS_P2;Temp;Humidity;BMP_temperature;BMP_pressure;BME280_temperature;BME280_humidity;BME280_pressure;Samples;Min_cycle;Max_cycle;Signal;HPM_P1;HPM_P2
2023/12/15 00:01:42;;;;;;;8.88;4.40;;;2.10;99.90;;;;;;5024183;28;20488;-76
2023/12/15 00:04:08;;;;;;;8.70;3.65;;;2.10;99.90;;;;;;5020976;28;20132;-76
2023/12/15 00:06:33;;;;;;;8.35;4.55;;;2.10;99.90;;;;;;5019865;28;20474;-74
2023/12/15 00:08:58;;;;;;;9.07;3.88;;;2.10;99.90;;;;;;5008924;28;20120;-74
2023/12/15 00:11:24;;;;;;;11.80;4.47;;;2.10;99.90;;;;;;5016150;28;20022;-74
2023/12/15 00:13:49;;;;;;;10.23;4.45;;;2.10;99.90;;;;;;5018070;28;20385;-73
2023/12/15 00:16:15;;;;;;;9.20;3.85;;;2.10;99.90;;;;;;5020055;28;20109;-74
2023/12/15 00:18:40;;;;;;;11.60;4.57;;;2.10;99.90;;;;;;5015225;28;20033;-74
2023/12/15 00:21:06;;;;;;;8.95;3.65;;;2.20;99.90;;;;;;5023004;28;20038;-73
2023/12/15 00:23:33;;;;;;;11.80;4.53;;;2.20;99.90;;;;;;5019764;28;20116;-74
2023/12/15 00:25:59;;;;;;;11.23;3.97;;;2.20;99.90;;;;;;5017274;28;20125;-74
2023/12/15 00:28:24;;;;;;;10.65;4.15;;;2.20;99.90;;;;;;5018507;28;20045;-74
2023/12/15 00:30:50;;;;;;;9.38;4.15;;;2.20;99.90;;;;;;5019180;28;20038;-74
2023/12/15 00:33:15;;;;;;;11.10;3.92;;;2.30;99.90;;;;;;5011483;28;21305;-74
2023/12/15 00:35:41;;;;;;;10.20;4.30;;;2.30;99.90;;;;;;5016559;28;20095;-74
2023/12/15 00:38:06;;;;;;;10.10;3.90;;;2.30;99.90;;;;;;5016813;28;20475;-74
2023/12/15 00:40:32;;;;;;;8.95;4.15;;;2.40;99.90;;;;;;5016672;28;20466;-74
2023/12/15 00:42:57;;;;;;;6.97;3.55;;;2.40;99.90;;;;;;5015927;28;20128;-74
2023/12/15 00:45:23;;;;;;;10.05;4.47;;;2.40;99.90;;;;;;5022076;28;20037;-74
2023/12/15 00:47:49;;;;;;;10.20;4.25;;;2.40;99.90;;;;;;5015590;28;20030;-74
2023/12/15 00:50:14;;;;;;;9.60;4.13;;;2.40;99.90;;;;;;5016506;28;20059;-74
2023/12/15 00:52:40;;;;;;;12.80;5.22;;;2.50;99.90;;;;;;5015609;28;20037;-74
2023/12/15 00:55:05;;;;;;;9.35;3.97;;;2.50;99.90;;;;;;5018453;28;20136;-73
2023/12/15 00:57:31;;;;;;;9.02;4.60;;;2.50;99.90;;;;;;5018835;28;20487;-73
2023/12/15 00:59:56;;;;;;;10.40;4.82;;;2.50;99.90;;;;;;5024343;28;20087;-74
2023/12/15 01:02:22;;;;;;;11.93;4.78;;;2.50;99.90;;;;;;5013020;28;20050;-74
2023/12/15 01:04:47;;;;;;;9.88;4.43;;;2.50;99.90;;;;;;5015092;28;20025;-74
2023/12/15 01:07:13;;;;;;;9.55;4.65;;;2.50;99.90;;;;;;5015933;28;20100;-74
2023/12/15 01:09:38;;;;;;;9.52;4.18;;;2.50;99.90;;;;;;5019269;28;20112;-74
2023/12/15 01:12:04;;;;;;;11.07;4.38;;;2.50;99.90;;;;;;5018230;28;20034;-74
2023/12/15 01:14:29;;;;;;;11.98;4.97;;;2.50;99.90;;;;;;5020896;28;20443;-74
2023/12/15 01:16:55;;;;;;;9.95;4.18;;;2.60;99.90;;;;;;5025815;28;20142;-74
2023/12/15 01:19:20;;;;;;;8.52;4.35;;;2.60;99.90;;;;;;5020334;28;20052;-74
2023/12/15 01:21:46;;;;;;;8.60;4.22;;;2.60;99.90;;;;;;5026334;28;20129;-74
2023/12/15 01:24:12;;;;;;;10.52;4.32;;;2.60;99.90;;;;;;5018624;28;20359;-74
2023/12/15 01:26:38;;;;;;;9.38;4.30;;;2.60;99.90;;;;;;5022612;28;20029;-74
2023/12/15 01:29:03;;;;;;;7.82;3.58;;;2.50;99.90;;;;;;5022442;28;20064;-74
2023/12/15 01:31:29;;;;;;;9.48;4.00;;;2.60;99.90;;;;;;5024537;28;20166;-74
2023/12/15 01:33:54;;;;;;;9.43;4.03;;;2.60;99.90;;;;;;5014844;28;20099;-74
2023/12/15 01:36:20;;;;;;;13.30;4.53;;;2.60;99.90;;;;;;5013217;28;20109;-74
2023/12/15 01:38:45;;;;;;;10.82;4.78;;;2.60;99.90;;;;;;5015069;28;20037;-74
2023/12/15 01:41:11;;;;;;;10.52;4.30;;;2.60;99.90;;;;;;5017292;28;20029;-74
2023/12/15 01:43:36;;;;;;;9.85;3.97;;;2.60;99.90;;;;;;5016947;28;20036;-74
2023/12/15 01:46:02;;;;;;;10.60;4.85;;;2.60;99.90;;;;;;5022242;28;20074;-73
2023/12/15 01:48:30;;;;;;;10.63;4.32;;;2.60;99.90;;;;;;5017287;28;20041;-75
2023/12/15 01:50:55;;;;;;;7.25;3.83;;;2.60;99.90;;;;;;5017375;28;20492;-74
2023/12/15 01:53:21;;;;;;;10.07;4.35;;;2.60;99.90;;;;;;5013719;28;20104;-73
2023/12/15 01:55:47;;;;;;;10.90;3.92;;;2.70;99.90;;;;;;5021422;28;20045;-74
2023/12/15 01:58:12;;;;;;;7.50;3.55;;;2.70;99.90;;;;;;5020976;28;20029;-74
2023/12/15 02:00:38;;;;;;;10.63;4.25;;;2.70;99.90;;;;;;5015293;28;20234;-74
2023/12/15 02:03:03;;;;;;;10.05;3.83;;;2.70;99.90;;;;;;5013557;28;20481;-74
2023/12/15 02:05:29;;;;;;;12.57;4.30;;;2.70;99.90;;;;;;5015066;28;20026;-74
2023/12/15 02:07:55;;;;;;;10.00;4.53;;;2.70;99.90;;;;;;5015230;28;20454;-74
2023/12/15 02:10:20;;;;;;;7.32;4.10;;;2.70;99.90;;;;;;5019445;28;20044;-74
2023/12/15 02:12:46;;;;;;;11.98;5.07;;;2.70;99.90;;;;;;5019513;28;20140;-75
2023/12/15 02:15:11;;;;;;;10.27;4.18;;;2.80;99.90;;;;;;5016287;28;20037;-75
2023/12/15 02:17:38;;;;;;;10.98;4.50;;;2.80;99.90;;;;;;5019957;28;20026;-74
2023/12/15 02:20:05;;;;;;;10.15;4.63;;;2.80;99.90;;;;;;5016137;28;20077;-75
2023/12/15 02:22:30;;;;;;;7.65;3.55;;;2.80;99.90;;;;;;5016499;28;20034;-75
2023/12/15 02:24:56;;;;;;;8.90;4.03;;;2.80;99.90;;;;;;5014081;28;20112;-74
2023/12/15 02:27:21;;;;;;;10.25;4.90;;;2.80;99.90;;;;;;5022410;28;20057;-75
2023/12/15 02:29:47;;;;;;;9.93;5.15;;;2.80;99.90;;;;;;5018489;28;20279;-75
2023/12/15 02:32:12;;;;;;;11.10;4.50;;;2.90;99.90;;;;;;5016981;28;20355;-75
2023/12/15 02:34:38;;;;;;;9.90;5.20;;;2.90;99.90;;;;;;5009563;28;20037;-75
2023/12/15 02:37:03;;;;;;;9.68;4.60;;;2.90;99.90;;;;;;5018150;28;20113;-75
2023/12/15 02:39:29;;;;;;;12.90;4.55;;;3.00;99.90;;;;;;5014891;28;20191;-75
2023/12/15 02:41:54;;;;;;;9.50;4.38;;;2.90;99.90;;;;;;5018817;28;20112;-75
2023/12/15 02:44:19;;;;;;;9.23;4.18;;;2.90;99.90;;;;;;5024018;28;20025;-75
2023/12/15 02:46:45;;;;;;;11.23;5.43;;;3.00;99.90;;;;;;5018896;28;20148;-75
2023/12/15 02:49:10;;;;;;;10.48;4.05;;;3.00;99.90;;;;;;5012901;28;20444;-75
2023/12/15 02:51:36;;;;;;;9.57;4.53;;;3.00;99.90;;;;;;5017843;28;20030;-75
2023/12/15 02:54:03;;;;;;;9.95;4.57;;;3.00;99.90;;;;;;5020085;28;20408;-74
2023/12/15 02:56:29;;;;;;;9.57;5.68;;;3.00;99.90;;;;;;5021102;28;20452;-75
2023/12/15 02:58:54;;;;;;;10.80;4.30;;;3.00;99.90;;;;;;5019365;28;20128;-74
2023/12/15 03:01:20;;;;;;;10.85;5.15;;;3.00;99.90;;;;;;5017567;28;20034;-73
2023/12/15 03:03:45;;;;;;;7.32;3.85;;;3.10;99.90;;;;;;5017716;28;20056;-74
2023/12/15 03:06:11;;;;;;;9.60;4.20;;;3.00;99.90;;;;;;5018362;28;20198;-74
2023/12/15 03:08:37;;;;;;;11.43;5.07;;;3.10;99.90;;;;;;5015305;28;20372;-74
2023/12/15 03:11:03;;;;;;;9.27;4.43;;;3.10;99.90;;;;;;5023240;28;20333;-74
2023/12/15 03:13:29;;;;;;;11.55;5.57;;;3.10;99.90;;;;;;5027008;28;20441;-74
2023/12/15 03:16:03;;;;;;;10.60;4.63;;;3.10;99.90;;;;;;5019304;28;20076;-74
2023/12/15 03:18:29;;;;;;;10.80;4.88;;;3.10;99.90;;;;;;5014472;28;20104;-74
2023/12/15 03:20:55;;;;;;;9.93;4.82;;;3.10;99.90;;;;;;5034604;28;20038;-74
2023/12/15 03:23:20;;;;;;;12.75;5.13;;;3.10;99.90;;;;;;5018049;28;20541;-74
2023/12/15 03:25:46;;;;;;;8.85;4.57;;;3.10;99.90;;;;;;5018716;28;20056;-74
2023/12/15 03:28:11;;;;;;;9.52;4.13;;;3.10;99.90;;;;;;5020395;28;20178;-74
2023/12/15 03:30:36;;;;;;;11.20;4.88;;;3.10;99.90;;;;;;5022294;28;20048;-75
2023/12/15 03:33:02;;;;;;;12.23;4.70;;;3.10;99.90;;;;;;5014416;28;20373;-74
2023/12/15 03:35:28;;;;;;;10.07;4.47;;;3.10;99.90;;;;;;5020844;28;20072;-74
2023/12/15 03:37:53;;;;;;;10.38;4.45;;;3.10;99.90;;;;;;5013318;28;20471;-75
2023/12/15 03:40:18;;;;;;;12.98;4.80;;;3.10;99.90;;;;;;5013626;28;20341;-75
2023/12/15 03:42:46;;;;;;;8.65;4.45;;;3.10;99.90;;;;;;5017255;28;20151;-74
2023/12/15 03:45:11;;;;;;;10.35;5.50;;;3.10;99.90;;;;;;5011984;28;20041;-74
2023/12/15 03:47:37;;;;;;;11.95;5.07;;;3.20;99.90;;;;;;5014302;28;20057;-74
2023/12/15 03:50:03;;;;;;;9.50;3.85;;;3.20;99.90;;;;;;5020296;28;20128;-74
2023/12/15 03:52:28;;;;;;;12.38;5.47;;;3.20;99.90;;;;;;5022729;28;20044;-75
2023/12/15 03:54:54;;;;;;;10.75;4.72;;;3.20;99.90;;;;;;5027665;28;20030;-75
2023/12/15 03:57:19;;;;;;;9.13;4.40;;;3.20;99.90;;;;;;5024559;28;20116;-74
2023/12/15 03:59:45;;;;;;;9.43;3.85;;;3.20;99.90;;;;;;5030292;28;20041;-75
2023/12/15 04:02:14;;;;;;;10.20;4.75;;;3.20;99.90;;;;;;5020976;28;20044;-75
2023/12/15 04:04:42;;;;;;;12.38;4.05;;;3.20;99.90;;;;;;5021220;28;20026;-74
2023/12/15 04:07:07;;;;;;;11.30;4.57;;;3.20;99.90;;;;;;5019204;28;20192;-74
2023/12/15 04:09:33;;;;;;;8.68;3.90;;;3.20;99.90;;;;;;5030450;28;20108;-74
2023/12/15 04:11:58;;;;;;;9.68;4.22;;;3.20;99.90;;;;;;5028238;28;20042;-74
2023/12/15 04:14:24;;;;;;;13.45;4.72;;;3.20;99.90;;;;;;5020483;28;20359;-74
2023/12/15 04:16:49;;;;;;;11.43;4.45;;;3.20;99.90;;;;;;5020739;28;20041;-74
2023/12/15 04:19:15;;;;;;;9.48;4.28;;;3.20;99.90;;;;;;5017073;28;20437;-74
2023/12/15 04:21:40;;;;;;;11.40;5.00;;;3.30;99.90;;;;;;5022282;28;20041;-74
2023/12/15 04:24:06;;;;;;;9.32;4.70;;;3.20;99.90;;;;;;5024180;28;20157;-74
2023/12/15 04:26:32;;;;;;;9.73;4.28;;;3.30;99.90;;;;;;5020556;28;20051;-74
2023/12/15 04:28:58;;;;;;;9.32;4.93;;;3.20;99.90;;;;;;5026194;28;20030;-74
2023/12/15 04:31:23;;;;;;;10.38;4.47;;;3.30;99.90;;;;;;5034899;28;20562;-75
2023/12/15 04:33:49;;;;;;;10.20;4.78;;;3.30;99.90;;;;;;5019709;28;20113;-75
2023/12/15 04:36:19;;;;;;;12.23;4.53;;;3.30;99.90;;;;;;5020491;28;20022;-74
2023/12/15 04:38:44;;;;;;;10.80;4.30;;;3.30;99.90;;;;;;5020204;28;20029;-74
2023/12/15 04:41:20;;;;;;;9.68;5.20;;;3.30;99.90;;;;;;5019130;28;20033;-75
2023/12/15 04:43:46;;;;;;;10.90;4.25;;;3.30;99.90;;;;;;5017715;28;20090;-75
2023/12/15 04:46:21;;;;;;;12.38;4.60;;;3.30;99.90;;;;;;5016119;28;20446;-75
2023/12/15 04:48:46;;;;;;;9.40;5.05;;;3.30;99.90;;;;;;5020418;28;20034;-75
2023/12/15 04:51:11;;;;;;;9.43;4.18;;;3.30;99.90;;;;;;5017508;28;20426;-75
2023/12/15 04:53:37;;;;;;;11.77;5.07;;;3.30;99.90;;;;;;5015909;28;20029;-75
2023/12/15 04:56:02;;;;;;;10.07;5.10;;;3.40;99.90;;;;;;5021403;28;20063;-75
2023/12/15 04:58:28;;;;;;;11.68;5.32;;;3.40;99.90;;;;;;5015960;28;20082;-75
2023/12/15 05:00:53;;;;;;;10.35;4.82;;;3.40;99.90;;;;;;5020287;28;20449;-75
2023/12/15 05:03:19;;;;;;;12.07;4.95;;;3.40;99.90;;;;;;5014029;28;20094;-75
2023/12/15 05:05:47;;;;;;;11.23;3.92;;;3.40;99.90;;;;;;5019720;28;20057;-75
2023/12/15 05:08:13;;;;;;;8.77;4.18;;;3.40;99.90;;;;;;5017994;28;20086;-75
2023/12/15 05:10:38;;;;;;;10.60;4.30;;;3.40;99.90;;;;;;5019526;28;20127;-75
2023/12/15 05:13:04;;;;;;;12.07;5.15;;;3.40;99.90;;;;;;5018897;28;20404;-74
2023/12/15 05:15:29;;;;;;;11.18;4.90;;;3.50;99.90;;;;;;5019053;28;20099;-74
2023/12/15 05:17:55;;;;;;;12.18;5.25;;;3.50;99.90;;;;;;5018199;28;20101;-74
2023/12/15 05:20:20;;;;;;;11.00;4.75;;;3.50;99.90;;;;;;5026505;28;20125;-75
2023/12/15 05:22:46;;;;;;;11.95;5.22;;;3.50;99.90;;;;;;5018957;28;20038;-74
2023/12/15 05:25:11;;;;;;;8.75;4.43;;;3.50;99.90;;;;;;5019407;28;20103;-75
2023/12/15 05:27:37;;;;;;;11.93;5.47;;;3.50;99.90;;;;;;5017996;28;20084;-71
2023/12/15 05:30:03;;;;;;;9.93;5.30;;;3.50;99.90;;;;;;5018539;28;20037;-71
2023/12/15 05:32:28;;;;;;;13.70;5.55;;;3.50;99.90;;;;;;5026389;28;20045;-72
2023/12/15 05:34:54;;;;;;;14.35;5.32;;;3.50;99.90;;;;;;5020555;28;20081;-72
2023/12/15 05:37:20;;;;;;;13.73;6.20;;;3.60;99.90;;;;;;5012134;28;20041;-72
2023/12/15 05:39:46;;;;;;;11.65;5.45;;;3.60;99.90;;;;;;5015570;28;20100;-71
2023/12/15 05:42:11;;;;;;;10.52;4.57;;;3.60;99.90;;;;;;5022256;28;20100;-71
2023/12/15 05:44:40;;;;;;;9.73;5.43;;;3.60;99.90;;;;;;5016531;28;20053;-72
2023/12/15 05:47:06;;;;;;;12.52;5.78;;;3.60;99.90;;;;;;5019621;28;20393;-71
2023/12/15 05:49:34;;;;;;;13.60;5.13;;;3.60;99.90;;;;;;5013961;28;20129;-72
2023/12/15 05:51:59;;;;;;;10.80;5.47;;;3.60;99.90;;;;;;5012124;28;20024;-72
2023/12/15 05:54:25;;;;;;;11.90;5.53;;;3.60;99.90;;;;;;5011374;28;20033;-71
2023/12/15 05:56:50;;;;;;;10.18;4.57;;;3.70;99.90;;;;;;5014574;28;20100;-71
2023/12/15 05:59:15;;;;;;;11.57;5.60;;;3.70;99.90;;;;;;5025862;28;20079;-72
2023/12/15 06:01:41;;;;;;;12.32;5.43;;;3.70;99.90;;;;;;5011209;28;20048;-71
2023/12/15 06:04:06;;;;;;;9.43;4.70;;;3.70;99.90;;;;;;5013028;28;20091;-72
2023/12/15 06:06:32;;;;;;;10.07;4.70;;;3.70;99.90;;;;;;5011564;28;20133;-72
2023/12/15 06:08:57;;;;;;;14.68;6.63;;;3.80;99.90;;;;;;5022425;28;20441;-72
2023/12/15 06:11:24;;;;;;;11.43;5.63;;;3.80;99.90;;;;;;5018846;28;20045;-72
2023/12/15 06:13:49;;;;;;;10.52;5.03;;;3.80;99.90;;;;;;5016304;28;20368;-72
2023/12/15 06:16:19;;;;;;;13.82;5.40;;;3.80;99.90;;;;;;5014552;28;20026;-72
2023/12/15 06:18:45;;;;;;;15.90;6.63;;;3.80;99.90;;;;;;5012867;28;20074;-72
2023/12/15 06:21:25;;;;;;;10.20;5.35;;;3.80;99.90;;;;;;5023115;28;20668;-72
2023/12/15 06:23:51;;;;;;;9.90;5.30;;;3.90;99.90;;;;;;5008986;28;20026;-72
2023/12/15 06:26:21;;;;;;;13.70;5.35;;;3.90;99.90;;;;;;5012262;28;20034;-73
2023/12/15 06:28:47;;;;;;;13.70;5.82;;;3.90;99.90;;;;;;5022537;28;20137;-72
2023/12/15 06:31:13;;;;;;;12.77;5.97;;;3.90;99.90;;;;;;5007848;28;20613;-70
2023/12/15 06:33:38;;;;;;;14.35;6.35;;;3.90;99.90;;;;;;5012679;28;20048;-71
2023/12/15 06:36:04;;;;;;;12.25;5.75;;;3.90;99.90;;;;;;5018641;28;20413;-71
2023/12/15 06:38:30;;;;;;;11.02;5.28;;;4.00;99.90;;;;;;5010034;28;20042;-71
2023/12/15 06:40:55;;;;;;;10.98;5.45;;;4.00;99.90;;;;;;5017815;28;20041;-72
2023/12/15 06:43:21;;;;;;;14.80;5.55;;;4.00;99.90;;;;;;5015286;28;20500;-73
2023/12/15 06:45:46;;;;;;;12.75;5.85;;;4.00;99.90;;;;;;5022229;28;20117;-73
2023/12/15 06:48:12;;;;;;;12.40;5.70;;;4.00;99.90;;;;;;5017002;28;20222;-72
2023/12/15 06:50:37;;;;;;;12.23;5.30;;;4.00;99.90;;;;;;5013351;28;20021;-72
2023/12/15 06:53:02;;;;;;;14.02;6.35;;;4.00;99.90;;;;;;5011498;28;20424;-70
2023/12/15 06:55:28;;;;;;;11.88;5.88;;;4.10;99.90;;;;;;5017270;28;20061;-72
2023/12/15 06:57:53;;;;;;;13.40;6.03;;;4.10;99.90;;;;;;5021632;28;20087;-71
2023/12/15 07:00:20;;;;;;;12.35;5.47;;;4.10;99.90;;;;;;5014512;28;20379;-72
2023/12/15 07:02:45;;;;;;;10.43;4.68;;;4.10;99.90;;;;;;5013866;28;20022;-73
2023/12/15 07:05:11;;;;;;;15.95;6.32;;;4.10;99.90;;;;;;5007226;28;20026;-72
2023/12/15 07:07:36;;;;;;;14.88;6.10;;;4.10;99.90;;;;;;5028305;28;20042;-72
2023/12/15 07:10:03;;;;;;;11.95;4.80;;;4.10;99.90;;;;;;5012680;28;20060;-72
2023/12/15 07:12:28;;;;;;;11.05;5.07;;;4.10;99.90;;;;;;5012379;28;20026;-71
2023/12/15 07:14:55;;;;;;;11.30;5.03;;;4.20;99.90;;;;;;5011057;28;20361;-72
2023/12/15 07:17:20;;;;;;;12.38;5.82;;;4.20;99.90;;;;;;5012504;28;20102;-72
2023/12/15 07:19:46;;;;;;;14.02;6.05;;;4.20;99.90;;;;;;5009408;28;20045;-72
2023/12/15 07:22:13;;;;;;;12.43;6.13;;;4.20;99.90;;;;;;5013285;28;20484;-72
2023/12/15 07:24:40;;;;;;;13.85;6.85;;;4.30;99.90;;;;;;5015602;28;20377;-72
2023/12/15 07:27:06;;;;;;;14.18;6.18;;;4.30;99.90;;;;;;5010275;28;20042;-72
2023/12/15 07:29:32;;;;;;;12.68;5.70;;;4.30;99.90;;;;;;5023119;28;20049;-72
2023/12/15 07:31:58;;;;;;;12.32;5.65;;;4.30;99.90;;;;;;5015368;28;20037;-72
2023/12/15 07:34:23;;;;;;;13.60;5.68;;;4.30;99.90;;;;;;5011405;28;20458;-72
2023/12/15 07:36:49;;;;;;;12.15;5.53;;;4.30;99.90;;;;;;5017198;28;20074;-72
2023/12/15 07:39:21;;;;;;;12.43;4.90;;;4.40;99.90;;;;;;5016498;28;20040;-72
2023/12/15 07:41:50;;;;;;;13.95;6.15;;;4.50;99.90;;;;;;5014169;28;20030;-72
2023/12/15 07:44:16;;;;;;;13.43;5.40;;;4.50;99.90;;;;;;5021829;28;20079;-71
2023/12/15 07:46:42;;;;;;;11.13;5.25;;;4.50;99.90;;;;;;5012708;28;20056;-73
2023/12/15 07:49:11;;;;;;;13.63;5.95;;;4.50;99.90;;;;;;5018047;28;20040;-72
2023/12/15 07:51:36;;;;;;;15.48;6.13;;;4.60;99.90;;;;;;5024256;28;20076;-73
2023/12/15 07:54:02;;;;;;;10.23;4.93;;;4.50;99.90;;;;;;5020633;28;20073;-73
2023/12/15 07:56:29;;;;;;;13.18;6.05;;;4.60;99.90;;;;;;5008285;28;20378;-73
2023/12/15 07:58:55;;;;;;;14.05;6.07;;;4.60;99.90;;;;;;5020646;28;20021;-72
2023/12/15 08:01:22;;;;;;;13.45;5.65;;;4.60;99.90;;;;;;5015871;28;20095;-72
2023/12/15 08:03:48;;;;;;;10.10;5.55;;;4.60;99.90;;;;;;5012165;28;20073;-73
2023/12/15 08:06:16;;;;;;;13.20;6.55;;;4.60;99.90;;;;;;5020772;28;20100;-73
2023/12/15 08:08:42;;;;;;;13.30;5.97;;;4.60;99.90;;;;;;5016189;28;20085;-73
2023/12/15 08:11:09;;;;;;;12.48;5.70;;;4.60;99.90;;;;;;5019483;28;20036;-72
2023/12/15 08:13:36;;;;;;;11.90;6.40;;;4.70;99.90;;;;;;5019142;28;20109;-73
2023/12/15 08:16:03;;;;;;;17.17;7.13;;;4.70;99.90;;;;;;5016372;28;20196;-73
2023/12/15 08:18:28;;;;;;;15.75;5.78;;;4.70;99.90;;;;;;5015710;28;20029;-73
2023/12/15 08:20:54;;;;;;;14.35;6.88;;;4.70;99.90;;;;;;5016872;28;20430;-72
2023/12/15 08:23:19;;;;;;;16.77;7.70;;;4.80;99.90;;;;;;5013652;28;20038;-73
2023/12/15 08:25:45;;;;;;;17.40;6.22;;;4.80;99.90;;;;;;5012690;28;20421;-73
2023/12/15 08:28:11;;;;;;;15.77;7.03;;;4.80;99.90;;;;;;5013153;28;20473;-73
2023/12/15 08:30:37;;;;;;;14.73;7.57;;;4.80;99.90;;;;;;5016449;28;20116;-72
2023/12/15 08:33:03;;;;;;;16.48;7.75;;;4.90;99.90;;;;;;5014115;28;20033;-72
2023/12/15 08:35:28;;;;;;;16.63;7.95;;;4.90;99.90;;;;;;5015957;28;20048;-73
2023/12/15 08:37:56;;;;;;;18.92;8.02;;;5.00;99.90;;;;;;5015615;28;20551;-73
2023/12/15 08:40:22;;;;;;;20.33;7.95;;;5.10;99.90;;;;;;5013172;28;22146;-73
2023/12/15 08:42:48;;;;;;;16.10;8.25;;;5.10;99.90;;;;;;5022586;28;20037;-73
2023/12/15 08:45:13;;;;;;;21.00;7.50;;;5.10;99.90;;;;;;5022337;28;20457;-72
2023/12/15 08:47:38;;;;;;;15.35;6.93;;;5.10;99.90;;;;;;5016539;28;20125;-72
2023/12/15 08:50:05;;;;;;;18.92;8.07;;;5.10;99.90;;;;;;5015071;28;20457;-72
2023/12/15 08:52:30;;;;;;;18.35;7.47;;;5.10;99.90;;;;;;5020056;28;20055;-72
2023/12/15 08:54:57;;;;;;;20.02;8.93;;;5.10;99.90;;;;;;5019220;28;20440;-71
2023/12/15 08:57:22;;;;;;;17.40;7.28;;;5.10;99.90;;;;;;5018736;28;20048;-73
2023/12/15 08:59:48;;;;;;;17.98;7.35;;;5.10;99.90;;;;;;5022108;28;20023;-71
2023/12/15 09:02:14;;;;;;;14.40;7.18;;;5.20;99.90;;;;;;5024456;28;20129;-72
2023/12/15 09:04:39;;;;;;;16.63;7.93;;;5.20;99.90;;;;;;5019306;28;20133;-72
2023/12/15 09:07:08;;;;;;;17.88;8.75;;;5.20;99.90;;;;;;5018626;28;20586;-72
2023/12/15 09:09:34;;;;;;;16.70;7.05;;;5.30;99.90;;;;;;5020762;28;20068;-72
2023/12/15 09:12:00;;;;;;;15.95;6.95;;;5.30;99.90;;;;;;5022663;28;20048;-72
2023/12/15 09:14:27;;;;;;;16.60;7.43;;;5.30;99.90;;;;;;5017030;28;20037;-72
2023/12/15 09:16:54;;;;;;;15.30;7.38;;;5.30;99.90;;;;;;5014490;28;20923;-73
2023/12/15 09:19:19;;;;;;;13.98;6.68;;;5.40;99.90;;;;;;5020374;28;20038;-71
2023/12/15 09:21:45;;;;;;;19.02;8.52;;;5.40;99.90;;;;;;5011734;28;20120;-73
2023/12/15 09:24:12;;;;;;;16.17;7.03;;;5.50;99.90;;;;;;5010424;28;20139;-72
2023/12/15 09:26:38;;;;;;;18.05;7.15;;;5.50;99.90;;;;;;5026424;28;20021;-72
2023/12/15 09:29:04;;;;;;;21.00;7.63;;;5.60;99.90;;;;;;5022848;28;20144;-71
2023/12/15 09:31:29;;;;;;;17.33;7.43;;;5.60;99.90;;;;;;5016650;28;20115;-76
2023/12/15 09:33:55;;;;;;;18.25;6.95;;;5.60;99.90;;;;;;5027617;28;20047;-74
2023/12/15 09:36:21;;;;;;;15.90;6.90;;;5.60;99.90;;;;;;5021885;28;20064;-73
2023/12/15 09:38:47;;;;;;;18.40;7.03;;;5.60;99.90;;;;;;5016846;28;20413;-71
2023/12/15 09:41:12;;;;;;;16.88;7.45;;;5.70;99.90;;;;;;5020054;28;20087;-73
2023/12/15 09:43:38;;;;;;;16.60;7.13;;;5.70;99.90;;;;;;5023340;28;20404;-76
2023/12/15 09:46:04;;;;;;;17.50;5.75;;;5.80;99.90;;;;;;5011141;28;20521;-71
2023/12/15 09:48:31;;;;;;;16.40;7.20;;;5.80;99.90;;;;;;5026246;28;20037;-72
2023/12/15 09:51:02;;;;;;;14.55;7.43;;;5.80;99.90;;;;;;5011259;28;20347;-71
2023/12/15 09:53:38;;;;;;;17.15;6.93;;;5.90;99.90;;;;;;5018160;28;20038;-73
2023/12/15 09:56:04;;;;;;;17.63;7.40;;;5.90;99.90;;;;;;5017606;28;20049;-76
2023/12/15 09:58:30;;;;;;;14.30;6.32;;;5.90;99.90;;;;;;5020365;28;20113;-76
2023/12/15 10:00:55;;;;;;;10.70;5.78;;;5.90;99.90;;;;;;5015126;28;20030;-77
2023/12/15 10:03:22;;;;;;;16.83;6.15;;;6.00;99.90;;;;;;5010780;28;20349;-77
2023/12/15 10:05:47;;;;;;;15.40;5.57;;;6.00;99.90;;;;;;5014182;28;20053;-78
2023/12/15 10:08:13;;;;;;;11.30;5.45;;;6.00;99.90;;;;;;5009885;28;20551;-74
2023/12/15 10:10:38;;;;;;;12.68;5.03;;;6.10;99.90;;;;;;5016143;28;20034;-74
2023/12/15 10:13:04;;;;;;;11.88;6.90;;;6.10;99.90;;;;;;5020421;28;20042;-75
2023/12/15 10:15:30;;;;;;;14.43;6.68;;;6.10;99.90;;;;;;5010721;28;20466;-74
2023/12/15 10:17:55;;;;;;;13.93;7.05;;;6.10;99.90;;;;;;5012940;28;20120;-74
2023/12/15 10:20:20;;;;;;;12.25;6.72;;;6.10;99.90;;;;;;5009151;28;20131;-74
2023/12/15 10:22:47;;;;;;;13.48;6.38;;;6.10;99.90;;;;;;5015141;28;20404;-74
2023/12/15 10:25:21;;;;;;;11.77;5.75;;;6.10;99.90;;;;;;5024304;28;20117;-75
2023/12/15 10:27:48;;;;;;;11.13;5.85;;;6.20;99.90;;;;;;5021666;28;20081;-76
2023/12/15 10:30:15;;;;;;;14.93;6.10;;;6.20;99.90;;;;;;5016300;28;20113;-73
2023/12/15 10:32:41;;;;;;;11.63;5.18;;;6.20;99.90;;;;;;5014106;28;20370;-74
2023/12/15 10:35:09;;;;;;;14.00;6.60;;;6.20;99.90;;;;;;5008529;28;20030;-75
2023/12/15 10:37:36;;;;;;;14.18;6.47;;;6.20;99.90;;;;;;5012559;28;20037;-75
2023/12/15 10:40:02;;;;;;;13.88;7.18;;;6.20;99.90;;;;;;5015696;28;20040;-74
2023/12/15 10:42:29;;;;;;;12.05;5.00;;;6.30;99.90;;;;;;5013922;28;20142;-74
2023/12/15 10:45:01;;;;;;;14.13;6.75;;;6.30;99.90;;;;;;5010990;28;20053;-74
2023/12/15 10:47:27;;;;;;;12.18;6.05;;;6.30;99.90;;;;;;5009270;28;20143;-75
2023/12/15 10:49:53;;;;;;;12.85;5.53;;;6.30;99.90;;;;;;5014851;28;20067;-75
2023/12/15 10:52:21;;;;;;;12.75;6.55;;;6.40;99.90;;;;;;5013931;28;20040;-75
2023/12/15 10:54:50;;;;;;;14.88;6.22;;;6.40;99.90;;;;;;5009607;28;20036;-75
2023/12/15 10:57:15;;;;;;;15.27;6.75;;;6.30;99.90;;;;;;5012706;28;20097;-74
2023/12/15 10:59:41;;;;;;;16.85;6.47;;;6.40;99.90;;;;;;5015422;28;20041;-74
2023/12/15 11:02:11;;;;;;;10.90;5.70;;;6.40;99.90;;;;;;5011465;28;20033;-74
2023/12/15 11:04:37;;;;;;;13.10;5.72;;;6.40;99.90;;;;;;5009659;28;20033;-74
2023/12/15 11:07:03;;;;;;;14.82;7.50;;;6.40;99.90;;;;;;5017229;28;20088;-74
2023/12/15 11:09:34;;;;;;;11.55;7.25;;;6.50;99.90;;;;;;5016136;28;20072;-75
2023/12/15 11:12:22;;;;;;;11.77;5.55;;;6.50;99.90;;;;;;5011673;28;20557;-75
2023/12/15 11:14:53;;;;;;;11.57;5.53;;;6.50;99.90;;;;;;5012403;28;20179;-75
2023/12/15 11:17:19;;;;;;;10.98;5.80;;;6.50;99.90;;;;;;5014691;28;20348;-75
2023/12/15 11:19:45;;;;;;;11.60;5.28;;;6.50;99.90;;;;;;5014591;28;20046;-75
2023/12/15 11:22:11;;;;;;;13.68;6.22;;;6.60;99.90;;;;;;5015899;28;20365;-74
2023/12/15 11:24:38;;;;;;;15.55;5.90;;;6.60;99.90;;;;;;5016916;28;20034;-75
2023/12/15 11:27:04;;;;;;;13.45;6.05;;;6.60;99.90;;;;;;5009761;28;20034;-75
2023/12/15 11:29:35;;;;;;;15.77;6.20;;;6.50;99.90;;;;;;5018623;28;20474;-75
2023/12/15 11:32:34;;;;;;;10.93;5.25;;;6.60;99.90;;;;;;5016701;28;20041;-75
2023/12/15 11:35:01;;;;;;;11.15;5.78;;;6.60;99.90;;;;;;5018007;28;20022;-74
2023/12/15 11:37:27;;;;;;;17.33;7.43;;;6.60;99.90;;;;;;5017260;28;20033;-75
2023/12/15 11:39:54;;;;;;;14.32;6.53;;;6.60;99.90;;;;;;5014323;28;20037;-75
2023/12/15 11:42:20;;;;;;;11.63;6.03;;;6.70;99.90;;;;;;5018941;28;20060;-75
2023/12/15 11:44:46;;;;;;;12.05;6.32;;;6.70;99.90;;;;;;5016841;28;20037;-75
2023/12/15 11:47:12;;;;;;;15.57;6.20;;;6.70;99.90;;;;;;5016300;28;20029;-75
2023/12/15 11:49:42;;;;;;;12.43;5.90;;;6.70;99.90;;;;;;5006239;28;20041;-75
2023/12/15 11:52:15;;;;;;;12.68;5.18;;;6.70;99.90;;;;;;5013807;28;20025;-75
2023/12/15 11:54:41;;;;;;;10.13;5.47;;;6.80;99.90;;;;;;5011801;28;20176;-75
2023/12/15 11:57:07;;;;;;;12.15;6.80;;;6.80;99.90;;;;;;5018189;28;20026;-75
2023/12/15 11:59:40;;;;;;;12.85;5.72;;;6.90;99.90;;;;;;5010634;28;20393;-75
2023/12/15 12:02:05;;;;;;;10.80;6.57;;;6.90;99.90;;;;;;5014254;28;20033;-76
2023/12/15 12:04:31;;;;;;;12.77;5.20;;;6.90;99.90;;;;;;5004026;28;20442;-75
2023/12/15 12:06:58;;;;;;;12.40;6.30;;;6.90;99.90;;;;;;5019794;28;20081;-75
2023/12/15 12:09:24;;;;;;;15.13;6.90;;;6.90;99.90;;;;;;5014175;28;20528;-75
2023/12/15 12:11:51;;;;;;;14.90;5.90;;;7.00;99.90;;;;;;5021589;28;20160;-74
2023/12/15 12:14:16;;;;;;;11.68;5.47;;;7.00;99.90;;;;;;5011113;28;20026;-75
2023/12/15 12:16:48;;;;;;;11.20;5.70;;;6.90;99.90;;;;;;5013473;28;20049;-75
2023/12/15 12:19:14;;;;;;;11.25;5.65;;;6.90;99.90;;;;;;5015953;28;20041;-75
2023/12/15 12:21:39;;;;;;;14.48;6.80;;;6.90;99.90;;;;;;5023171;28;20033;-75
2023/12/15 12:24:06;;;;;;;14.93;5.50;;;6.90;99.90;;;;;;5018202;28;20032;-75
2023/12/15 12:26:31;;;;;;;12.48;5.45;;;6.90;99.90;;;;;;5035972;28;20114;-75
2023/12/15 12:28:57;;;;;;;12.45;5.78;;;7.00;99.90;;;;;;5012664;28;20079;-75
2023/12/15 12:31:24;;;;;;;12.45;6.28;;;7.00;99.90;;;;;;5020967;28;20040;-75
2023/12/15 12:33:50;;;;;;;11.70;4.53;;;7.00;99.90;;;;;;5015790;28;20028;-75
2023/12/15 12:36:17;;;;;;;9.90;5.07;;;7.10;99.90;;;;;;5016767;28;20116;-75
2023/12/15 12:38:44;;;;;;;10.65;4.90;;;7.10;99.90;;;;;;5018383;28;20485;-75
2023/12/15 12:41:09;;;;;;;11.00;5.32;;;7.10;99.90;;;;;;5028841;28;20441;-75
2023/12/15 12:43:35;;;;;;;10.50;4.55;;;7.10;99.90;;;;;;5016427;28;20049;-75